Архив погоды в Ногликах

Метеограмма Ноглики
Вторник, 14 Августа
Время местн. Темп Ветер Видим Явления Облачность нижн/средн/верх Атм. давл. Влжн Точка росы ВНГО R Сост. почвы Tg s
Напр Скр Прв ур.ст ур.м изм
22:00 +11.3° С,С-В 2 3 10 км небо без изменений {ливневые осадки} облачно 759 762 +1.1 97% +10.9° 1 км - - - -
19:00 +12.9° С 3 6 50 км слабый ливневый дождь облачно 758 761 +1.1 96% +12.3° 1 км 6 - - -
16:00 +15.2° С,С-В 3 6 50 км ливневый дождь облачно с прояснениями 757 760 +0.6 100% +15.2° 1 км - - - -
13:00 +17.2° З 3 7 50 км ливневый дождь облачно с прояснениями 756 760 -0.2 81% +14° 1 км - - - -
10:00 +16° З 4 7 50 км - облачно с прояснениями 756 760 +0.2 79% +12.3° 1 км - - - -
07:00 +11.8° З 2 3 50 км - облачно с прояснениями 756 760 +0.5 96% +11.2° 1 км 1 Влажная (без луж) - -
04:00 +11.3° Ю-З 2 5 10 км - преимущественно облачно 756 759 +0.2 97% +10.9° 1 км - - - -
01:00 +11.5° З 1 2 10 км - преимущественно облачно 755 759 +0.5 97% +11.1° 1 км - - - -
Понедельник, 13 Августа
Время местн. Темп Ветер Видим Явления Облачность нижн/средн/верх Атм. давл. Влжн Точка росы ВНГО R Сост. почвы Tg s
Напр Скр Прв ур.ст ур.м изм
22:00 +12.7° З,С-З 1 3 10 км облака рассеиваются {ливневые осадки} переменная облачность 755 758 +0.8 97% +12.3° 1 км - - - -
19:00 +15.4° Ю 2 4 50 км - облачно с прояснениями 754 758 +0.3 88% +13.4° 1 км 0 - - -
16:00 +16.5° Ю-В 4 6 50 км - облачно с прояснениями 754 757 -0.1 75% +12.1° 1 км - - - -
13:00 +17.4° В,Ю-В 2 3 50 км - преимущественно облачно 754 757 -0.1 72% +12.4° 1 км - - - -
10:00 +16.5° В 1 2 50 км - преимущественно облачно 754 758 +0.1 80% +13° 1 км - - - -
07:00 +13.3° З,Ю-З 1 3 50 км - преимущественно облачно 754 757 +0.2 97% +12.8° 1 км 0 Влажная (без луж) - -
04:00 +12° Ю 1 2 10 км - преимущественно облачно 754 757 -0.2 96% +11.4° 1 км - - - -
01:00 +12.4° Ю-З 1 1 10 км - облачно 754 757 +0.3 96% +11.8° 1 км - - - -
Воскресенье, 12 Августа
Время местн. Темп Ветер Видим Явления Облачность нижн/средн/верх Атм. давл. Влжн Точка росы ВНГО R Сост. почвы Tg s
Напр Скр Прв ур.ст ур.м изм
22:00 +12.8° З 1 2 10 км небо без изменений {ливневые осадки} облачно 754 757 +0.9 96% +12.2° 600 м - - - -
19:00 +13.9° В 1 2 20 км ливневый дождь облачно 753 756 +0.8 97% +13.4° 600 м 1 - - -
16:00 +15.9° С-В 2 3 50 км - облачно 752 755 -0.1 90% +14.2° 600 м - - - -
13:00 +14.7° В 2 3 более 50 км - облачно 752 755 +0.1 97% +14.2° 600 м - - - -
10:00 +12.9° штиль 0 - 50 км небо без изменений {ливневые осадки} облачно 752 755 +0.2 97% +12.5° 600 м - - - -
07:00 +9.6° Ю 1 1 4 км дымка {ливневые осадки} облачно 752 755 -0.1 99% +9.4° 600 м 1 Влажная (без луж) - -
04:00 +8.9° В 1 1 10 км слабый ливневый дождь облачно 752 755 -0.4 99% +8.7° 600 м - - - -
01:00 +9.1° В 1 1 4 км дымка облачно 752 756 -0.2 100% +9.1° 300 м - - - -
Суббота, 11 Августа
Время местн. Темп Ветер Видим Явления Облачность нижн/средн/верх Атм. давл. Влжн Точка росы ВНГО R Сост. почвы Tg s
Напр Скр Прв ур.ст ур.м изм
22:00 +9.5° Ю-В 3 4 4 км дымка облачно 752 756 +0.5 99% +9.3° 300 м - - - -
19:00 +10.4° Ю-В 3 7 более 50 км - облачно 752 755 +0.1 94% +9.5° 600 м 0 - - -